Time;durP1;ratioP1;P1;durP2;ratioP2;P2;SDS_P1;SDS_P2;PMS_P1;PMS_P2;Temp;Humidity;BMP_temperature;BMP_pressure;BME280_temperature;BME280_humidity;BME280_pressure;Samples;Min_cycle;Max_cycle;Signal;HPM_P1;HPM_P2
2022/02/05 00:03:46;;;;;;;53.37;30.23;;;;;;;-5.35;74.46;99776.19;1707593;83;21045;-77
2022/02/05 00:05:36;;;;;;;50.30;30.33;;;;;;;-5.38;74.34;99782.56;1686644;84;20976;-88
2022/02/05 00:08:19;;;;;;;55.23;30.10;;;;;;;-5.31;74.45;99780.99;1706713;84;21013;-80
2022/02/05 00:10:59;;;;;;;41.57;23.77;;;;;;;-5.13;74.38;99781.53;1702225;84;21738;-78
2022/02/05 00:13:24;;;;;;;54.13;29.70;;;;;;;-4.96;74.06;99774.16;1688463;83;21270;-82
2022/02/05 00:15:41;;;;;;;43.07;27.33;;;;;;;-5.05;73.55;99770.64;1700410;83;20975;-77
2022/02/05 00:40:10;;;;;;;52.30;28.77;;;;;;;-4.90;73.48;99747.34;1714721;83;20986;-71
2022/02/05 00:42:41;;;;;;;42.53;24.70;;;;;;;-4.91;73.17;99742.59;1690943;84;21085;-75
2022/02/05 00:45:10;;;;;;;46.50;27.47;;;;;;;-4.94;73.26;99737.62;1708823;84;21082;-73
2022/02/05 00:47:41;;;;;;;44.10;27.23;;;;;;;-4.95;73.16;99733.86;1709147;84;21017;-72
2022/02/05 00:50:13;;;;;;;42.63;27.10;;;;;;;-4.97;73.26;99735.80;1708659;84;21566;-71
2022/02/05 00:52:37;;;;;;;43.57;22.87;;;;;;;-4.90;73.42;99730.30;1690971;84;21662;-74
2022/02/05 00:55:09;;;;;;;44.57;25.50;;;;;;;-4.86;73.22;99726.40;1689376;84;20943;-75
2022/02/05 00:57:56;;;;;;;37.63;23.47;;;;;;;-4.89;73.24;99721.44;1637290;85;21558;-73
2022/02/05 01:00:01;;;;;;;40.87;23.57;;;;;;;-4.85;73.21;99721.50;1659891;85;21019;-75
2022/02/05 01:02:28;;;;;;;41.77;26.40;;;;;;;-4.81;73.29;99721.52;1636916;86;21056;-77
2022/02/05 01:04:54;;;;;;;36.17;22.57;;;;;;;-4.84;73.16;99717.39;1667004;84;21214;-75
2022/02/05 01:07:21;;;;;;;37.43;23.37;;;;;;;-4.83;73.23;99714.28;1636968;87;21087;-74
2022/02/05 01:09:48;;;;;;;44.97;25.37;;;;;;;-4.78;73.45;99705.47;1667639;85;21044;-80
2022/02/05 01:12:15;;;;;;;44.53;26.20;;;;;;;-4.71;73.25;99702.59;1678927;84;20961;-75
2022/02/05 01:14:48;;;;;;;31.00;20.80;;;;;;;-4.60;73.25;99709.38;1687203;84;21083;-73
2022/02/05 01:17:12;;;;;;;34.83;21.53;;;;;;;-4.55;72.93;99709.26;1699819;84;21175;-68
2022/02/05 01:20:24;;;;;;;42.90;26.67;;;;;;;-4.54;72.72;99706.98;1677289;85;20973;-70
2022/02/05 01:22:27;;;;;;;41.60;24.13;;;;;;;-4.65;72.61;99705.90;1685378;85;21044;-80
2022/02/05 01:24:54;;;;;;;60.60;26.00;;;;;;;-4.79;72.84;99697.75;1687415;84;21096;-70
2022/02/05 01:32:37;;;;;;;30.90;18.97;;;;;;;-4.85;73.45;99701.83;1662138;85;21029;-71
2022/02/05 01:35:17;;;;;;;24.30;16.07;;;;;;;-4.82;73.54;99703.30;1687097;84;21551;-72
2022/02/05 01:51:32;;;;;;;24.13;15.53;;;;;;;-4.84;73.52;99695.09;1679079;85;21115;-74
2022/02/05 01:56:32;;;;;;;28.37;17.47;;;;;;;-4.94;73.80;99704.05;1687226;85;21221;-74
2022/02/05 01:59:10;;;;;;;27.30;15.77;;;;;;;-4.89;73.94;99692.58;1676160;85;21634;-72
2022/02/05 02:09:46;;;;;;;24.47;14.37;;;;;;;-4.82;73.65;99697.58;1686920;84;21868;-75
2022/02/05 02:12:14;;;;;;;25.53;15.50;;;;;;;-4.83;73.74;99697.23;1688085;83;21082;-76
2022/02/05 02:20:20;;;;;;;25.33;15.70;;;;;;;-4.77;73.90;99686.14;1687032;85;20994;-71
2022/02/05 02:22:42;;;;;;;24.10;14.60;;;;;;;-4.76;73.61;99683.03;1685737;84;21351;-71
2022/02/05 02:25:11;;;;;;;25.60;16.13;;;;;;;-4.83;73.63;99686.74;1676014;85;21039;-69
2022/02/05 02:27:43;;;;;;;28.67;16.10;;;;;;;-4.82;73.80;99686.26;1686620;84;21044;-69
2022/02/05 02:30:14;;;;;;;29.57;15.73;;;;;;;-4.80;73.76;99689.56;1689883;83;21004;-71
2022/02/05 02:32:39;;;;;;;24.35;14.70;;;;;;;-4.80;73.83;99691.70;1676715;85;21582;-70
2022/02/05 02:35:10;;;;;;;23.97;14.80;;;;;;;-4.80;73.92;99689.56;1686931;84;21122;-69
2022/02/05 02:37:55;;;;;;;25.97;16.60;;;;;;;-4.74;73.99;99688.94;1676884;85;20946;-72
2022/02/05 02:42:47;;;;;;;24.77;14.50;;;;;;;-4.63;73.92;99696.09;1687259;84;21068;-86
2022/02/05 02:45:12;;;;;;;28.57;16.53;;;;;;;-4.54;73.98;99683.36;1676811;85;21037;-70
2022/02/05 02:47:44;;;;;;;30.47;17.20;;;;;;;-4.43;73.77;99679.18;1686996;84;21160;-74
2022/02/05 02:50:18;;;;;;;30.50;18.47;;;;;;;-4.41;73.61;99684.25;1686859;84;21014;-75
2022/02/05 02:58:15;;;;;;;27.23;16.67;;;;;;;-4.55;73.61;99672.52;1687098;84;20919;-77
2022/02/05 03:00:38;;;;;;;25.30;14.17;;;;;;;-4.59;73.92;99661.17;1687085;84;21333;-75
2022/02/05 03:03:04;;;;;;;27.03;18.70;;;;;;;-4.64;74.21;99663.44;1686970;85;21006;-76
2022/02/05 03:05:31;;;;;;;29.47;17.53;;;;;;;-4.68;74.38;99652.44;1686963;85;21471;-73
2022/02/05 03:07:58;;;;;;;32.63;20.33;;;;;;;-4.72;74.62;99648.47;1686869;84;21534;-74
2022/02/05 03:10:25;;;;;;;26.37;16.77;;;;;;;-4.74;74.86;99654.34;1677638;84;21147;-75
2022/02/05 03:12:51;;;;;;;31.27;18.10;;;;;;;-4.72;75.02;99646.33;1690847;83;21677;-74
2022/02/05 03:15:20;;;;;;;23.63;16.13;;;;;;;-4.69;75.14;99641.59;1708971;83;20978;-71
2022/02/05 03:17:55;;;;;;;28.97;17.83;;;;;;;-4.61;75.23;99641.67;1683039;82;21022;-72
2022/02/05 03:20:21;;;;;;;28.37;15.57;;;;;;;-4.61;75.37;99643.47;1698347;83;21047;-72
2022/02/05 03:22:47;;;;;;;29.07;15.70;;;;;;;-4.61;75.40;99636.91;1692356;83;21038;-72
2022/02/05 03:25:13;;;;;;;23.63;16.00;;;;;;;-4.57;75.38;99639.07;1692075;83;21073;-72
2022/02/05 03:27:40;;;;;;;27.53;17.50;;;;;;;-4.53;75.51;99636.47;1702254;83;20930;-72
2022/02/05 03:30:08;;;;;;;25.90;16.97;;;;;;;-4.52;75.44;99642.54;1695380;83;21010;-72
2022/02/05 03:32:34;;;;;;;22.67;14.77;;;;;;;-4.57;75.51;99633.82;1690850;83;21681;-71
2022/02/05 03:35:01;;;;;;;25.77;16.60;;;;;;;-4.58;75.69;99633.48;1694022;84;21104;-71
2022/02/05 03:37:30;;;;;;;23.50;13.77;;;;;;;-4.61;75.76;99631.17;1691863;83;40099;-73
2022/02/05 03:39:56;;;;;;;26.10;15.37;;;;;;;-4.58;75.83;99633.97;1689843;84;20981;-72
2022/02/05 03:42:23;;;;;;;19.93;12.90;;;;;;;-4.55;75.96;99621.35;1693671;84;21060;-73
2022/02/05 03:44:49;;;;;;;21.37;13.83;;;;;;;-4.47;75.96;99632.41;1695316;83;21054;-72
2022/02/05 03:47:15;;;;;;;28.83;16.67;;;;;;;-4.46;75.80;99627.50;1699650;83;21039;-72
2022/02/05 03:49:42;;;;;;;20.03;14.37;;;;;;;-4.48;75.73;99629.44;1725683;83;21077;-71
2022/02/05 03:52:09;;;;;;;22.53;14.77;;;;;;;-4.47;75.84;99625.84;1713013;83;21116;-72
2022/02/05 03:54:35;;;;;;;25.97;15.57;;;;;;;-4.53;75.93;99622.03;1689783;84;21075;-71
2022/02/05 03:57:02;;;;;;;16.87;12.50;;;;;;;-4.59;76.10;99619.20;1690036;84;21109;-74
2022/02/05 03:59:28;;;;;;;22.03;14.50;;;;;;;-4.61;76.39;99611.98;1680094;83;21484;-71
2022/02/05 04:01:55;;;;;;;23.93;13.57;;;;;;;-4.61;76.39;99621.17;1725740;83;21147;-71
2022/02/05 04:04:22;;;;;;;17.83;11.53;;;;;;;-4.62;76.59;99624.28;1721070;82;21543;-72
2022/02/05 04:06:49;;;;;;;23.83;14.03;;;;;;;-4.65;76.79;99620.63;1718727;83;21026;-71
2022/02/05 04:09:21;;;;;;;22.97;15.20;;;;;;;-4.66;76.91;99624.74;1689963;84;21078;-73
2022/02/05 04:16:57;;;;;;;25.60;16.57;;;;;;;-4.55;77.13;99616.10;1658711;85;20932;-72
2022/02/05 04:19:24;;;;;;;20.70;14.40;;;;;;;-4.56;77.26;99618.91;1656390;85;21608;-72
2022/02/05 04:21:50;;;;;;;22.23;15.00;;;;;;;-4.53;77.42;99604.15;1656107;85;21087;-72
2022/02/05 04:24:16;;;;;;;17.70;11.73;;;;;;;-4.54;77.53;99602.50;1656666;85;21136;-72
2022/02/05 04:26:43;;;;;;;28.43;16.10;;;;;;;-4.55;77.71;99599.53;1644177;84;21302;-72
2022/02/05 04:29:09;;;;;;;24.63;17.13;;;;;;;-4.54;77.75;99609.89;1714057;82;20963;-72
2022/02/05 04:31:37;;;;;;;23.93;16.40;;;;;;;-4.52;77.80;99600.07;1733953;82;21085;-73
2022/02/05 04:34:03;;;;;;;25.93;15.20;;;;;;;-4.52;77.80;99592.69;1712664;81;21092;-73
2022/02/05 04:36:34;;;;;;;12.27;8.70;;;;;;;-4.51;77.92;99596.95;1719185;82;21519;-72
2022/02/05 04:39:07;;;;;;;26.87;16.17;;;;;;;-4.51;78.06;99603.52;1734379;82;21764;-71
2022/02/05 04:41:41;;;;;;;29.33;16.90;;;;;;;-4.49;77.99;99611.55;1707155;82;21002;-71
2022/02/05 04:49:39;;;;;;;22.83;14.80;;;;;;;-4.34;77.64;99631.48;1701061;82;21064;-71
2022/02/05 04:54:39;;;;;;;20.77;12.43;;;;;;;-4.34;77.21;99613.59;1705208;82;20969;-71
2022/02/05 05:04:33;;;;;;;23.90;14.93;;;;;;;-4.37;77.28;99612.61;1682576;84;21336;-71
2022/02/05 05:09:35;;;;;;;28.87;16.47;;;;;;;-4.40;77.19;99615.04;1734162;81;20947;-71
2022/02/05 05:20:06;;;;;;;23.77;15.43;;;;;;;-4.36;77.03;99596.69;1626294;87;21560;-71
2022/02/05 05:22:33;;;;;;;24.50;12.47;;;;;;;-4.35;76.94;99589.63;1653359;84;21056;-71
2022/02/05 05:25:00;;;;;;;26.43;16.17;;;;;;;-4.31;76.77;99588.33;1705694;82;21141;-70
2022/02/05 05:27:27;;;;;;;22.37;14.67;;;;;;;-4.29;76.81;99592.95;1733882;81;21598;-69
2022/02/05 05:29:53;;;;;;;24.23;15.80;;;;;;;-4.29;76.82;99588.53;1731295;81;21021;-70
2022/02/05 05:32:20;;;;;;;19.37;13.67;;;;;;;-4.28;76.81;99593.29;1724838;81;21320;-70
2022/02/05 05:34:46;;;;;;;27.33;18.30;;;;;;;-4.29;76.87;99592.46;1733848;82;21010;-70
2022/02/05 05:37:12;;;;;;;18.50;12.30;;;;;;;-4.25;76.84;99594.27;1731702;82;21053;-71
2022/02/05 05:39:42;;;;;;;28.60;18.13;;;;;;;-4.22;76.76;99593.46;1733814;81;21140;-70
2022/02/05 05:42:12;;;;;;;23.43;15.03;;;;;;;-4.18;76.75;99593.99;1733984;82;21855;-71
2022/02/05 05:44:56;;;;;;;26.90;17.40;;;;;;;-4.14;76.68;99591.38;1733786;82;21061;-69
2022/02/05 05:52:22;;;;;;;23.93;15.87;;;;;;;-4.24;76.69;99590.19;1701526;82;21577;-69
2022/02/05 05:54:49;;;;;;;29.50;16.70;;;;;;;-4.20;76.82;99595.94;1669567;82;21218;-71
2022/02/05 05:57:16;;;;;;;19.33;13.93;;;;;;;-4.22;76.93;99596.09;1731536;81;21492;-70
2022/02/05 05:59:43;;;;;;;20.40;14.77;;;;;;;-4.21;77.01;99600.36;1730073;81;21526;-72
2022/02/05 06:02:10;;;;;;;22.27;16.13;;;;;;;-4.19;77.03;99593.17;1734120;81;21002;-70
2022/02/05 06:04:37;;;;;;;20.57;12.90;;;;;;;-4.15;76.99;99585.79;1734531;81;21022;-72
2022/02/05 06:07:04;;;;;;;21.73;15.53;;;;;;;-4.13;76.97;99578.10;1733981;81;21740;-69
2022/02/05 06:09:32;;;;;;;21.97;15.00;;;;;;;-4.13;76.95;99575.96;1691045;83;20997;-70
2022/02/05 06:11:59;;;;;;;28.47;13.93;;;;;;;-4.14;76.98;99579.08;1701648;82;20899;-70
2022/02/05 06:14:27;;;;;;;27.10;15.13;;;;;;;-4.15;77.26;99576.11;1662336;84;21081;-68
2022/02/05 06:17:00;;;;;;;22.03;14.27;;;;;;;-4.15;77.26;99576.11;1715351;82;21058;-68
2022/02/05 06:19:21;;;;;;;25.53;15.37;;;;;;;-4.12;77.43;99577.09;1664595;84;21266;-71
2022/02/05 06:21:48;;;;;;;26.33;16.47;;;;;;;-4.12;77.64;99578.41;1711101;83;21074;-71
2022/02/05 06:24:14;;;;;;;25.50;15.10;;;;;;;-4.09;77.81;99574.66;1635694;86;21073;-69
2022/02/05 06:26:41;;;;;;;20.30;15.00;;;;;;;-4.06;78.01;99574.33;1685479;85;21035;-68
2022/02/05 06:29:09;;;;;;;23.77;14.77;;;;;;;-4.02;78.08;99574.34;1635777;86;20981;-70
2022/02/05 06:31:35;;;;;;;22.43;14.87;;;;;;;-3.96;78.16;99565.34;1683496;83;21080;-70
2022/02/05 06:34:03;;;;;;;17.03;12.23;;;;;;;-3.96;78.28;99566.66;1647938;86;21102;-70
2022/02/05 06:36:30;;;;;;;19.03;12.70;;;;;;;-3.90;78.37;99556.48;1637221;86;21076;-69
2022/02/05 06:38:58;;;;;;;22.23;15.20;;;;;;;-3.91;78.42;99545.64;1638258;83;21048;-71
2022/02/05 06:41:24;;;;;;;15.93;9.70;;;;;;;-3.94;78.62;99550.74;1646599;86;21023;-69
2022/02/05 06:43:51;;;;;;;25.90;16.47;;;;;;;-3.95;78.82;99549.09;1639451;86;21131;-70
2022/02/05 06:46:17;;;;;;;25.07;14.23;;;;;;;-3.95;78.82;99546.47;1630995;88;21109;-69
2022/02/05 06:48:43;;;;;;;22.77;14.13;;;;;;;-3.87;78.81;99545.65;1631355;86;21065;-69
2022/02/05 06:51:10;;;;;;;27.23;17.57;;;;;;;-3.86;78.66;99538.93;1634091;86;21125;-71
2022/02/05 06:53:39;;;;;;;22.10;15.30;;;;;;;-3.84;78.73;99547.48;1659719;86;21535;-69
2022/02/05 06:56:05;;;;;;;26.23;14.77;;;;;;;-3.83;78.93;99544.34;1659754;86;21158;-68
2022/02/05 06:58:31;;;;;;;25.20;16.30;;;;;;;-3.79;79.05;99543.06;1659629;84;20965;-71
2022/02/05 07:00:58;;;;;;;25.20;17.63;;;;;;;-3.79;79.18;99539.91;1668651;85;21569;-69
2022/02/05 07:03:25;;;;;;;24.20;14.43;;;;;;;-3.76;79.27;99552.74;1669291;84;21058;-71
2022/02/05 07:05:51;;;;;;;22.07;16.53;;;;;;;-3.71;79.43;99546.52;1646132;86;21418;-69
2022/02/05 07:08:18;;;;;;;24.67;15.70;;;;;;;-3.64;79.61;99542.73;1659493;84;21549;-71
2022/02/05 07:10:47;;;;;;;21.83;14.60;;;;;;;-3.61;79.89;99543.25;1659652;85;21531;-72
2022/02/05 07:13:17;;;;;;;24.43;16.73;;;;;;;-3.53;80.29;99543.24;1696951;84;21059;-70
2022/02/05 07:15:51;;;;;;;27.67;16.90;;;;;;;-3.50;80.37;99540.77;1680391;84;21051;-72
2022/02/05 07:18:19;;;;;;;22.60;14.40;;;;;;;-3.52;80.75;99534.38;1677230;83;21107;-70
2022/02/05 07:20:44;;;;;;;24.83;16.30;;;;;;;-3.53;81.12;99534.53;1675198;84;21557;-71
2022/02/05 07:31:16;;;;;;;27.20;16.67;;;;;;;-3.47;82.28;99519.42;1734613;82;21022;-68
2022/02/05 07:33:43;;;;;;;23.47;14.40;;;;;;;-3.42;82.27;99518.93;1709135;82;21134;-70
2022/02/05 07:36:11;;;;;;;28.00;18.87;;;;;;;-3.38;82.56;99513.67;1727886;81;21033;-72
2022/02/05 07:38:38;;;;;;;23.53;15.43;;;;;;;-3.33;82.52;99510.05;1686438;82;21646;-68
2022/02/05 07:41:05;;;;;;;29.27;19.50;;;;;;;-3.30;82.75;99508.40;1685774;82;21021;-71
2022/02/05 07:43:35;;;;;;;27.17;16.30;;;;;;;-3.29;82.62;99502.16;1734035;82;21067;-69
2022/02/05 07:46:06;;;;;;;28.93;17.50;;;;;;;-3.24;82.79;99491.47;1736290;82;21092;-71
2022/02/05 07:48:33;;;;;;;25.10;14.93;;;;;;;-3.29;82.97;99483.75;1736303;82;20978;-72
2022/02/05 07:51:00;;;;;;;16.57;11.50;;;;;;;-3.28;83.30;99480.14;1721870;82;21566;-70
2022/02/05 07:53:27;;;;;;;20.83;12.27;;;;;;;-3.30;83.49;99488.19;1702592;83;21119;-71
2022/02/05 07:55:54;;;;;;;24.30;15.83;;;;;;;-3.27;83.66;99501.02;1715491;82;21543;-70
2022/02/05 07:58:20;;;;;;;25.47;15.23;;;;;;;-3.22;83.79;99490.00;1733867;81;21188;-70
2022/02/05 08:00:48;;;;;;;21.70;14.13;;;;;;;-3.15;83.77;99486.53;1736613;81;20930;-72
2022/02/05 08:03:15;;;;;;;27.73;17.90;;;;;;;-3.07;84.06;99478.30;1726383;82;21075;-70
2022/02/05 08:05:42;;;;;;;23.13;15.63;;;;;;;-3.05;84.00;99470.56;1706631;82;21134;-72
2022/02/05 08:08:13;;;;;;;23.93;16.20;;;;;;;-3.01;84.25;99469.23;1733779;81;21116;-72
2022/02/05 08:10:47;;;;;;;25.57;15.57;;;;;;;-3.00;84.34;99465.61;1685540;82;21912;-72
2022/02/05 08:13:08;;;;;;;26.97;16.57;;;;;;;-2.99;84.46;99457.23;1723157;81;20978;-72
2022/02/05 08:15:36;;;;;;;22.17;15.37;;;;;;;-3.00;84.69;99455.09;1663801;84;21472;-72
2022/02/05 08:18:03;;;;;;;30.67;17.37;;;;;;;-2.97;85.13;99457.90;1706768;82;21042;-71
2022/02/05 08:20:30;;;;;;;20.93;14.70;;;;;;;-2.97;85.51;99446.85;1646575;86;21109;-72
2022/02/05 08:22:56;;;;;;;23.17;14.60;;;;;;;-2.93;85.58;99445.55;1693714;83;21647;-70
2022/02/05 08:25:24;;;;;;;20.93;13.33;;;;;;;-2.88;85.66;99440.61;1675269;85;20988;-70
2022/02/05 08:27:51;;;;;;;25.83;16.17;;;;;;;-2.79;85.72;99440.07;1715723;83;21030;-70
2022/02/05 08:30:17;;;;;;;22.80;15.27;;;;;;;-2.79;85.77;99447.47;1663904;84;21033;-70
2022/02/05 08:32:45;;;;;;;19.07;13.67;;;;;;;-2.73;85.92;99430.98;1704086;83;21011;-71
2022/02/05 08:35:11;;;;;;;21.90;15.00;;;;;;;-2.71;86.28;99429.50;1652566;86;21108;-71
2022/02/05 08:37:40;;;;;;;23.67;16.33;;;;;;;-2.68;86.53;99433.09;1705106;83;20915;-71
2022/02/05 08:40:08;;;;;;;19.23;14.83;;;;;;;-2.60;86.59;99432.25;1635583;86;21037;-73
2022/02/05 08:42:35;;;;;;;19.03;13.40;;;;;;;-2.55;86.83;99427.30;1665804;84;21110;-74
2022/02/05 08:45:02;;;;;;;20.57;14.40;;;;;;;-2.49;86.90;99431.36;1647990;86;21054;-73
2022/02/05 08:47:33;;;;;;;14.03;10.97;;;;;;;-2.42;86.90;99436.27;1618111;86;21039;-73
2022/02/05 08:50:00;;;;;;;22.10;15.47;;;;;;;-2.43;86.85;99430.67;1610435;89;21052;-72
2022/02/05 08:52:26;;;;;;;22.43;16.00;;;;;;;-2.45;86.91;99429.22;1669766;83;21058;-71
2022/02/05 08:54:53;;;;;;;23.83;14.13;;;;;;;-2.50;87.40;99424.47;1652468;85;21197;-70
2022/02/05 08:57:19;;;;;;;33.77;19.30;;;;;;;-2.50;87.66;99421.02;1705843;81;21568;-71
2022/02/05 08:59:54;;;;;;;29.23;19.07;;;;;;;-2.50;87.83;99408.68;1635428;87;21155;-75
2022/02/05 09:02:27;;;;;;;20.30;13.18;;;;;;;-2.46;88.02;99409.14;1685187;84;21058;-72
2022/02/05 09:07:19;;;;;;;25.13;15.63;;;;;;;-2.43;88.32;99412.73;1695581;83;20995;-73
2022/02/05 09:14:57;;;;;;;24.43;15.40;;;;;;;-2.31;88.66;99401.66;1700134;83;21596;-75
2022/02/05 09:17:24;;;;;;;26.47;17.57;;;;;;;-2.30;88.96;99399.31;1708489;82;21042;-73
2022/02/05 09:19:50;;;;;;;22.27;16.83;;;;;;;-2.27;89.07;99396.36;1696469;84;21098;-72
2022/02/05 09:22:17;;;;;;;21.83;14.93;;;;;;;-2.28;89.34;99387.30;1732509;82;21628;-73
2022/02/05 09:24:43;;;;;;;33.43;19.80;;;;;;;-2.25;89.66;99373.77;1718551;81;22148;-76
2022/02/05 09:27:12;;;;;;;27.93;16.13;;;;;;;-2.25;89.76;99373.77;1706150;83;20969;-77
2022/02/05 09:29:56;;;;;;;21.03;12.50;;;;;;;-2.23;89.97;99374.42;1700649;84;21028;-78
2022/02/05 09:32:11;;;;;;;30.75;18.67;;;;;;;-2.14;90.16;99376.50;1711254;82;21077;-77
2022/02/05 09:34:38;;;;;;;30.40;20.67;;;;;;;-2.08;90.11;99367.41;1715225;82;21641;-78
2022/02/05 09:37:04;;;;;;;21.13;14.87;;;;;;;-2.03;90.22;99369.02;1719985;82;21502;-79
2022/02/05 09:39:34;;;;;;;36.77;20.27;;;;;;;-2.00;90.25;99361.23;1700500;83;21044;-77
2022/02/05 09:42:01;;;;;;;18.03;13.80;;;;;;;-1.99;90.16;99355.80;1714629;82;21258;-74
2022/02/05 09:44:29;;;;;;;24.97;15.80;;;;;;;-1.98;90.35;99351.35;1704553;82;21522;-75
2022/02/05 09:46:56;;;;;;;31.67;18.90;;;;;;;-1.96;90.40;99359.39;1702904;82;21062;-72
2022/02/05 09:49:25;;;;;;;26.87;18.17;;;;;;;-1.93;90.44;99353.78;1717887;82;21033;-72
2022/02/05 09:52:06;;;;;;;29.33;19.47;;;;;;;-1.87;90.46;99353.05;1721099;81;21110;-73
2022/02/05 09:54:20;;;;;;;21.00;14.33;;;;;;;-1.83;90.38;99350.40;1707785;82;21029;-72
2022/02/05 09:56:48;;;;;;;21.27;14.73;;;;;;;-1.78;90.29;99346.73;1710204;83;21056;-69
2022/02/05 09:59:14;;;;;;;28.57;18.20;;;;;;;-1.79;90.18;99335.86;1705717;83;21066;-70
2022/02/05 10:01:41;;;;;;;29.40;16.97;;;;;;;-1.74;90.21;99337.95;1702063;82;21218;-73
2022/02/05 10:04:12;;;;;;;31.87;18.23;;;;;;;-1.74;90.15;99337.95;1712996;82;21498;-71
2022/02/05 10:06:48;;;;;;;26.13;18.57;;;;;;;-1.69;90.20;99341.37;1700852;82;21584;-73
2022/02/05 10:09:17;;;;;;;27.97;17.13;;;;;;;-1.63;90.16;99351.20;1704288;82;21533;-70
2022/02/05 10:12:03;;;;;;;27.27;16.83;;;;;;;-1.57;90.13;99351.78;1727144;82;21150;-69
2022/02/05 10:14:33;;;;;;;27.67;17.60;;;;;;;-1.48;89.84;99349.38;1731353;81;21005;-69
2022/02/05 10:17:02;;;;;;;25.17;16.80;;;;;;;-1.44;89.57;99345.40;1716946;82;21868;-72
2022/02/05 10:19:49;;;;;;;24.50;18.67;;;;;;;-1.38;89.47;99344.66;1703353;81;21071;-72
2022/02/05 10:22:15;;;;;;;23.87;17.47;;;;;;;-1.36;89.17;99336.89;1714884;82;21568;-72
2022/02/05 10:24:54;;;;;;;31.03;17.70;;;;;;;-1.32;89.08;99344.75;1701669;84;21060;-71
2022/02/05 10:27:32;;;;;;;28.60;17.70;;;;;;;-1.27;88.92;99342.89;1725016;82;21121;-74
2022/02/05 10:30:28;;;;;;;26.37;15.93;;;;;;;-1.22;88.65;99333.92;1733791;82;21170;-73
2022/02/05 10:33:05;;;;;;;26.07;17.00;;;;;;;-1.18;88.55;99324.64;1731441;81;21102;-76
2022/02/05 10:35:54;;;;;;;22.23;16.13;;;;;;;-1.12;88.58;99306.77;1712289;82;21559;-76
2022/02/05 10:40:49;;;;;;;22.07;14.70;;;;;;;-1.00;88.27;99306.59;1718709;83;22274;-73
2022/02/05 10:43:15;;;;;;;22.37;12.57;;;;;;;-0.95;88.12;99306.86;1668402;84;20966;-73
2022/02/05 10:45:50;;;;;;;24.33;17.63;;;;;;;-0.91;87.71;99302.84;1697691;83;21043;-74
2022/02/05 10:48:22;;;;;;;22.87;16.13;;;;;;;-0.86;87.65;99301.48;1705195;82;21059;-77
2022/02/05 10:50:51;;;;;;;26.23;17.30;;;;;;;-0.82;87.42;99303.57;1729142;81;21006;-77
2022/02/05 10:53:39;;;;;;;23.37;15.37;;;;;;;-0.73;87.52;99304.27;1683409;84;21951;-75
2022/02/05 11:07:19;;;;;;;21.33;15.17;;;;;;;-0.53;86.27;99266.47;1693095;82;21189;-76
2022/02/05 11:09:53;;;;;;;17.20;10.43;;;;;;;-0.48;86.30;99255.37;1724808;82;21079;-76
2022/02/05 11:20:17;;;;;;;28.37;17.43;;;;;;;-0.38;86.39;99243.95;1645818;85;21536;-73
2022/02/05 11:22:59;;;;;;;23.90;15.23;;;;;;;-0.39;86.37;99240.20;1696640;83;21003;-77
2022/02/05 11:25:31;;;;;;;25.47;17.67;;;;;;;-0.34;86.47;99249.19;1700972;83;21022;-74
2022/02/05 11:27:57;;;;;;;22.30;16.57;;;;;;;-0.30;86.29;99241.19;1690268;84;21079;-75
2022/02/05 11:30:39;;;;;;;23.27;16.70;;;;;;;-0.21;86.31;99241.36;1686857;82;22973;-72
2022/02/05 11:33:27;;;;;;;22.47;16.03;;;;;;;-0.15;86.08;99239.28;1649381;85;21595;-75
2022/02/05 11:36:39;;;;;;;25.40;17.50;;;;;;;-0.07;86.00;99234.34;1636180;85;21868;-73
2022/02/05 11:38:35;;;;;;;25.20;17.07;;;;;;;-0.03;85.65;99217.91;1648096;85;20975;-76
2022/02/05 11:41:03;;;;;;;26.65;17.05;;;;;;;-0.07;85.90;99213.20;1706151;83;21030;-76
2022/02/05 11:43:33;;;;;;;23.63;15.37;;;;;;;-0.05;85.97;99208.55;1686335;84;21093;-77
2022/02/05 11:46:18;;;;;;;26.60;18.43;;;;;;;-0.09;86.28;99210.74;1688349;83;21576;-76
2022/02/05 11:48:57;;;;;;;26.87;18.00;;;;;;;-0.10;86.38;99208.31;1626058;85;21070;-84
2022/02/05 11:51:29;;;;;;;23.03;15.27;;;;;;;-0.10;86.67;99203.84;1631396;85;21121;-86
2022/02/05 11:54:10;;;;;;;25.65;16.52;;;;;;;-0.07;86.82;99205.27;1704678;84;20959;-79
2022/02/05 11:57:01;;;;;;;28.73;17.67;;;;;;;0.03;86.88;99205.75;1661012;84;21542;-82
2022/02/05 11:59:34;;;;;;;25.67;16.73;;;;;;;0.09;86.78;99203.66;1648027;85;21531;-83
2022/02/05 12:02:19;;;;;;;26.07;16.07;;;;;;;0.17;86.73;99196.06;1665386;84;21399;-87
2022/02/05 12:04:46;;;;;;;21.27;14.83;;;;;;;0.21;86.68;99198.62;1666075;85;21059;-84
2022/02/05 12:07:13;;;;;;;28.37;16.83;;;;;;;0.19;86.49;99189.55;1672575;84;21035;-86
2022/02/05 12:09:46;;;;;;;23.07;16.17;;;;;;;0.10;87.02;99185.44;1651811;84;21070;-88
2022/02/05 12:12:37;;;;;;;27.70;18.12;;;;;;;0.09;87.21;99177.22;1651401;87;21119;-82
2022/02/05 12:15:19;;;;;;;24.33;15.23;;;;;;;0.10;87.27;99172.22;1617942;86;21055;-79
2022/02/05 12:21:08;;;;;;;27.50;18.53;;;;;;;0.14;87.56;99160.27;1598932;87;21035;-80
2022/02/05 12:24:15;;;;;;;27.77;17.87;;;;;;;0.14;87.64;99161.59;1678306;85;21574;-84
2022/02/05 12:26:33;;;;;;;28.62;19.62;;;;;;;0.16;87.68;99162.70;1654147;85;21158;-81
2022/02/05 12:29:01;;;;;;;26.83;18.20;;;;;;;0.22;87.69;99155.31;1631293;85;20943;-80
2022/02/05 12:31:36;;;;;;;25.30;17.23;;;;;;;0.23;87.74;99160.91;1636578;86;20983;-81
2022/02/05 12:34:12;;;;;;;28.43;18.37;;;;;;;0.25;87.73;99152.27;1671059;84;21056;-75
2022/02/05 12:36:49;;;;;;;24.63;17.37;;;;;;;0.23;87.76;99140.58;1681447;84;21078;-76
2022/02/05 12:39:24;;;;;;;25.77;17.73;;;;;;;0.26;87.78;99143.32;1658154;85;21109;-85
2022/02/05 12:42:09;;;;;;;29.47;17.93;;;;;;;0.27;87.78;99146.28;1652990;84;21020;-79
2022/02/05 12:44:38;;;;;;;26.20;18.13;;;;;;;0.24;87.92;99143.51;1678492;85;21018;-80
2022/02/05 12:47:19;;;;;;;25.93;17.23;;;;;;;0.21;88.04;99142.59;1675359;85;21031;-81
2022/02/05 12:49:53;;;;;;;25.30;17.30;;;;;;;0.23;88.02;99149.02;1676580;84;21071;-84
2022/02/05 12:52:15;;;;;;;25.70;16.93;;;;;;;0.27;87.93;99150.25;1685011;84;21094;-79
2022/02/05 12:54:49;;;;;;;27.73;17.90;;;;;;;0.34;87.84;99152.40;1672994;84;21074;-79
2022/02/05 12:57:17;;;;;;;26.70;17.07;;;;;;;0.37;87.25;99147.55;1653737;85;21023;-76
2022/02/05 12:59:46;;;;;;;27.77;18.37;;;;;;;0.36;86.99;99144.59;1654263;86;21103;-77
2022/02/05 13:02:15;;;;;;;26.90;18.67;;;;;;;0.30;86.99;99141.41;1655722;84;21052;-77
2022/02/05 13:04:45;;;;;;;27.17;18.43;;;;;;;0.32;87.01;99139.89;1662608;84;21378;-79
2022/02/05 13:07:21;;;;;;;24.27;17.27;;;;;;;0.36;86.96;99145.91;1678151;84;20987;-87
2022/02/05 13:09:57;;;;;;;27.83;18.43;;;;;;;0.43;86.78;99141.98;1670781;84;21054;-79
2022/02/05 13:12:36;;;;;;;27.87;16.97;;;;;;;0.46;86.29;99130.99;1664353;84;21115;-80
2022/02/05 13:15:10;;;;;;;24.67;17.13;;;;;;;0.51;86.09;99129.08;1702243;82;21095;-85
2022/02/05 13:18:04;;;;;;;26.67;18.20;;;;;;;0.50;85.69;99123.47;1662968;83;21168;-88
2022/02/05 13:26:28;;;;;;;30.03;19.43;;;;;;;0.57;85.09;99109.77;1691063;83;21030;-85
2022/02/05 13:34:27;;;;;;;31.20;17.90;;;;;;;0.55;85.09;99108.64;1715405;83;20928;-87
2022/02/05 13:37:04;;;;;;;24.57;17.20;;;;;;;0.54;84.99;99096.92;1716057;83;21027;-87
2022/02/05 13:42:25;;;;;;;25.20;18.98;;;;;;;0.52;84.66;99102.43;1686148;84;21043;-86
2022/02/05 13:45:04;;;;;;;31.93;18.13;;;;;;;0.53;84.69;99099.28;1685912;84;21142;-88
2022/02/05 13:47:35;;;;;;;22.13;15.30;;;;;;;0.56;84.53;99107.63;1667000;85;20976;-91
2022/02/05 13:50:15;;;;;;;25.25;17.23;;;;;;;0.61;84.29;99095.94;1666444;85;21050;-90
2022/02/05 13:52:51;;;;;;;26.80;17.33;;;;;;;0.61;83.91;99091.97;1668499;83;21087;-92
2022/02/05 13:55:27;;;;;;;21.83;16.40;;;;;;;0.65;83.91;99094.52;1716647;83;21489;-92
2022/02/05 13:58:07;;;;;;;23.67;15.47;;;;;;;0.67;83.86;99118.93;1715968;83;21801;-91
2022/02/05 14:00:45;;;;;;;24.97;16.20;;;;;;;0.72;83.63;99109.09;1719884;83;21130;-88
2022/02/05 14:03:16;;;;;;;25.33;16.13;;;;;;;0.72;83.31;99112.53;1717017;83;21034;-88
2022/02/05 14:06:04;;;;;;;25.00;17.63;;;;;;;0.70;83.25;99096.05;1700538;83;21605;-92
2022/02/05 14:08:50;;;;;;;24.83;18.17;;;;;;;0.68;83.34;99090.64;1686631;84;21057;-90
2022/02/05 14:11:33;;;;;;;22.77;15.77;;;;;;;0.68;83.32;99095.42;1690071;84;21031;-87